Time;durP1;ratioP1;P1;durP2;ratioP2;P2;SDS_P1;SDS_P2;PMS_P1;PMS_P2;Temp;Humidity;BMP_temperature;BMP_pressure;BME280_temperature;BME280_humidity;BME280_pressure;Samples;Min_cycle;Max_cycle;Signal;HPM_P1;HPM_P2
2021/06/15 00:00:25;;;;;;;4.77;3.23;;;23.10;54.10;;;;;;5245240;28;21191;-52
2021/06/15 00:02:57;;;;;;;3.83;3.42;;;23.10;54.00;;;;;;5234320;28;20071;-55
2021/06/15 00:05:30;;;;;;;7.30;3.65;;;23.10;54.00;;;;;;5241617;28;20059;-52
2021/06/15 00:08:03;;;;;;;6.22;3.63;;;23.00;54.00;;;;;;5222455;28;20043;-51
2021/06/15 00:10:36;;;;;;;5.28;3.10;;;23.00;54.00;;;;;;5241056;28;20489;-51
2021/06/15 00:13:10;;;;;;;;;;;23.00;53.90;;;;;;5242921;28;20052;-53
2021/06/15 00:15:47;;;;;;;6.55;3.22;;;23.00;53.80;;;;;;5242592;28;19920;-57
2021/06/15 00:18:20;;;;;;;5.43;3.33;;;23.00;53.90;;;;;;5245285;28;20060;-50
2021/06/15 00:20:52;;;;;;;5.55;3.83;;;23.00;53.90;;;;;;5243727;28;20432;-50
2021/06/15 00:23:25;;;;;;;4.68;3.15;;;22.90;53.80;;;;;;5243351;28;20055;-52
2021/06/15 00:26:08;;;;;;;6.85;4.20;;;22.90;53.80;;;;;;5239039;28;20500;-52
2021/06/15 00:28:41;;;;;;;6.10;3.72;;;22.90;53.70;;;;;;5243821;28;20059;-50
2021/06/15 00:31:13;;;;;;;6.17;3.43;;;22.90;53.70;;;;;;5240045;28;20404;-53
2021/06/15 00:33:46;;;;;;;4.95;3.75;;;22.90;53.70;;;;;;5244010;28;20040;-48
2021/06/15 00:36:19;;;;;;;4.82;3.90;;;22.90;53.80;;;;;;5240038;28;20070;-53
2021/06/15 00:38:51;;;;;;;5.70;3.17;;;22.90;53.70;;;;;;5243991;28;20067;-50
2021/06/15 00:41:24;;;;;;;5.80;3.47;;;22.80;53.70;;;;;;5240302;28;20055;-55
2021/06/15 00:43:56;;;;;;;5.78;3.10;;;22.80;53.70;;;;;;5225055;28;20044;-52
2021/06/15 00:46:29;;;;;;;5.75;3.83;;;22.80;53.70;;;;;;5241113;28;20048;-53
2021/06/15 00:49:02;;;;;;;5.23;3.27;;;22.80;53.60;;;;;;5226531;28;20048;-49
2021/06/15 00:51:36;;;;;;;5.38;3.28;;;22.80;53.70;;;;;;5244176;28;20321;-52
2021/06/15 00:54:09;;;;;;;6.72;3.65;;;22.80;53.70;;;;;;5229334;28;20052;-51
2021/06/15 00:56:42;;;;;;;8.43;3.83;;;22.80;53.70;;;;;;5228091;28;20412;-53
2021/06/15 00:59:15;;;;;;;4.63;3.42;;;22.80;53.60;;;;;;5250517;28;20055;-55
2021/06/15 01:01:50;;;;;;;5.10;3.45;;;22.80;53.60;;;;;;5244536;28;20051;-52
2021/06/15 01:04:22;;;;;;;;;;;22.80;53.60;;;;;;5236505;28;20047;-52
2021/06/15 01:07:25;;;;;;;7.55;3.35;;;22.70;53.60;;;;;;5232457;28;20103;-54
2021/06/15 01:10:16;;;;;;;4.40;3.47;;;22.70;53.60;;;;;;5249914;28;20048;-54
2021/06/15 01:13:22;;;;;;;4.20;3.08;;;22.70;53.60;;;;;;5230413;28;20055;-54
2021/06/15 01:15:58;;;;;;;5.30;3.63;;;22.70;53.60;;;;;;5247470;28;20059;-54
2021/06/15 01:18:33;;;;;;;10.70;3.85;;;22.70;53.60;;;;;;5232295;28;20059;-52
2021/06/15 01:21:11;;;;;;;5.05;3.20;;;22.70;53.60;;;;;;5229874;28;20056;-52
2021/06/15 01:23:59;;;;;;;7.95;3.83;;;22.60;53.60;;;;;;5236149;28;20067;-49
2021/06/15 01:26:58;;;;;;;4.65;3.10;;;22.60;53.60;;;;;;5249903;28;20068;-56
2021/06/15 01:29:38;;;;;;;6.00;3.45;;;22.60;53.50;;;;;;5233812;28;20574;-50
2021/06/15 01:32:23;;;;;;;6.28;3.28;;;22.60;53.50;;;;;;5245285;28;20048;-49
2021/06/15 01:34:59;;;;;;;4.97;3.45;;;22.60;53.50;;;;;;5231089;28;20048;-51
2021/06/15 01:37:37;;;;;;;4.45;3.30;;;22.60;53.50;;;;;;5232153;28;20060;-51
2021/06/15 01:40:15;;;;;;;3.53;3.10;;;22.60;53.50;;;;;;5245680;28;20051;-52
2021/06/15 01:42:59;;;;;;;4.05;3.33;;;22.50;53.40;;;;;;5228367;28;20060;-50
2021/06/15 01:45:40;;;;;;;4.90;3.45;;;22.60;53.50;;;;;;5247650;28;20043;-52
2021/06/15 01:48:30;;;;;;;4.43;3.35;;;22.50;53.40;;;;;;5246585;28;20067;-52
2021/06/15 01:51:05;;;;;;;7.13;3.70;;;22.50;53.50;;;;;;5234141;28;20052;-52
2021/06/15 01:53:48;;;;;;;8.82;3.47;;;22.50;53.50;;;;;;5214803;28;20056;-52
2021/06/15 01:56:29;;;;;;;6.85;3.67;;;22.50;53.50;;;;;;5246148;28;20516;-50
2021/06/15 01:59:08;;;;;;;4.28;3.20;;;22.50;53.50;;;;;;5230349;28;20052;-47
2021/06/15 02:01:44;;;;;;;9.07;3.53;;;22.50;53.50;;;;;;5224699;28;20161;-55
2021/06/15 02:04:24;;;;;;;5.55;3.30;;;22.50;53.60;;;;;;5244404;28;20053;-49
2021/06/15 02:07:00;;;;;;;3.78;3.20;;;22.50;53.60;;;;;;5249933;28;20056;-53
2021/06/15 02:09:40;;;;;;;4.22;3.42;;;22.50;53.60;;;;;;5233103;28;20051;-52
2021/06/15 02:12:44;;;;;;;5.60;3.67;;;22.50;53.60;;;;;;5249698;28;20728;-52
2021/06/15 02:15:28;;;;;;;3.85;3.35;;;22.50;53.60;;;;;;5226036;28;20044;-53
2021/06/15 02:18:22;;;;;;;4.70;3.42;;;22.40;53.60;;;;;;5251222;28;20056;-52
2021/06/15 02:21:08;;;;;;;5.05;3.25;;;22.40;53.50;;;;;;5229943;28;20052;-54
2021/06/15 02:23:45;;;;;;;5.93;3.53;;;22.40;53.60;;;;;;5244150;28;20048;-56
2021/06/15 02:26:19;;;;;;;5.72;3.70;;;22.40;53.50;;;;;;5245287;28;20455;-53
2021/06/15 02:28:56;;;;;;;17.25;3.72;;;22.40;53.50;;;;;;5249880;28;20059;-50
2021/06/15 02:31:36;;;;;;;4.28;3.35;;;22.40;53.60;;;;;;5221400;28;20610;-48
2021/06/15 02:34:15;;;;;;;5.88;3.65;;;22.40;53.60;;;;;;5245495;28;20060;-57
2021/06/15 02:37:02;;;;;;;4.85;3.42;;;22.40;53.60;;;;;;5244410;28;20040;-54
2021/06/15 02:39:37;;;;;;;6.88;3.53;;;22.40;53.60;;;;;;5226874;28;20045;-52
2021/06/15 02:42:13;;;;;;;5.68;3.28;;;22.40;53.60;;;;;;5244891;28;20055;-51
2021/06/15 02:44:52;;;;;;;7.38;4.03;;;22.30;53.60;;;;;;5246776;28;20055;-52
2021/06/15 02:47:32;;;;;;;4.63;3.42;;;22.40;53.60;;;;;;5225587;28;20048;-50
2021/06/15 02:50:07;;;;;;;4.10;3.47;;;22.30;53.50;;;;;;5227097;28;20055;-51
2021/06/15 02:52:46;;;;;;;5.43;3.40;;;22.30;53.50;;;;;;5224894;28;20520;-47
2021/06/15 02:55:40;;;;;;;7.03;3.40;;;22.30;53.50;;;;;;5224195;28;20819;-53
2021/06/15 02:58:16;;;;;;;4.30;3.50;;;22.30;53.40;;;;;;5253120;28;20055;-48
2021/06/15 03:00:51;;;;;;;4.75;3.35;;;22.30;53.50;;;;;;5229089;28;20064;-56
2021/06/15 03:03:23;;;;;;;4.97;3.10;;;22.30;53.60;;;;;;5245559;28;20055;-52
2021/06/15 03:05:56;;;;;;;4.20;2.95;;;22.30;53.60;;;;;;5227845;28;20768;-55
2021/06/15 03:08:29;;;;;;;4.77;3.37;;;22.30;53.60;;;;;;5241292;28;20055;-51
2021/06/15 03:11:06;;;;;;;5.63;3.40;;;22.30;53.50;;;;;;5233680;28;20415;-49
2021/06/15 03:13:53;;;;;;;5.88;3.55;;;22.20;53.60;;;;;;5224303;28;20047;-49
2021/06/15 03:16:30;;;;;;;6.30;3.17;;;22.20;53.80;;;;;;5222861;28;20040;-51
2021/06/15 03:19:23;;;;;;;7.30;3.60;;;22.30;54.00;;;;;;5239345;28;20064;-48
2021/06/15 03:22:15;;;;;;;6.40;3.37;;;22.30;54.10;;;;;;5242741;28;20059;-53
2021/06/15 03:24:55;;;;;;;5.03;3.40;;;22.30;54.10;;;;;;5239076;28;20622;-54
2021/06/15 03:27:48;;;;;;;5.88;3.30;;;22.30;54.20;;;;;;5220590;28;20310;-53
2021/06/15 03:30:23;;;;;;;10.82;3.85;;;22.40;54.70;;;;;;5228567;28;20044;-51
2021/06/15 03:33:07;;;;;;;8.48;3.35;;;22.40;54.70;;;;;;5244439;28;20048;-51
2021/06/15 03:35:47;;;;;;;8.55;3.28;;;22.50;54.60;;;;;;5246977;28;20040;-51
2021/06/15 03:38:23;;;;;;;7.03;3.40;;;22.50;54.30;;;;;;5248416;28;20055;-49
2021/06/15 03:40:59;;;;;;;5.65;2.80;;;22.60;54.30;;;;;;5243080;28;20048;-51
2021/06/15 03:43:34;;;;;;;13.80;3.15;;;22.60;54.40;;;;;;5241195;28;20056;-55
2021/06/15 03:46:12;;;;;;;7.97;3.13;;;22.60;54.30;;;;;;5247847;28;20064;-52
2021/06/15 03:48:47;;;;;;;9.45;3.65;;;22.60;54.50;;;;;;5246913;28;20044;-52
2021/06/15 03:51:26;;;;;;;7.15;3.30;;;22.60;54.50;;;;;;5227674;28;20059;-52
2021/06/15 03:54:06;;;;;;;6.68;3.40;;;22.60;54.50;;;;;;5228325;28;20052;-55
2021/06/15 03:56:44;;;;;;;5.95;3.10;;;22.60;54.50;;;;;;5246685;28;20535;-53
2021/06/15 03:59:21;;;;;;;25.83;3.92;;;22.60;54.60;;;;;;5241227;28;20052;-52
2021/06/15 04:01:56;;;;;;;6.35;3.58;;;22.60;54.60;;;;;;5246205;28;20063;-53
2021/06/15 04:04:33;;;;;;;5.80;3.20;;;22.60;55.20;;;;;;5245594;28;20067;-52
2021/06/15 04:07:12;;;;;;;7.20;3.03;;;22.60;54.60;;;;;;5226237;28;20040;-56
2021/06/15 04:09:48;;;;;;;7.95;3.45;;;22.60;54.60;;;;;;5243887;28;20056;-52
2021/06/15 04:12:25;;;;;;;5.57;2.90;;;22.60;54.60;;;;;;5244453;28;20614;-50
2021/06/15 04:15:00;;;;;;;4.15;2.95;;;22.60;54.60;;;;;;5245716;28;20059;-51
2021/06/15 04:17:37;;;;;;;6.50;3.40;;;22.60;54.60;;;;;;5239285;28;20515;-52
2021/06/15 04:20:11;;;;;;;5.63;3.03;;;22.60;54.70;;;;;;5241706;28;20497;-53
2021/06/15 04:22:47;;;;;;;6.00;3.03;;;22.60;54.60;;;;;;5241326;28;20512;-54
2021/06/15 04:25:28;;;;;;;6.50;3.78;;;22.60;54.60;;;;;;5235550;28;20048;-53
2021/06/15 04:28:01;;;;;;;4.50;3.13;;;22.60;54.70;;;;;;5239817;28;20060;-54
2021/06/15 04:30:35;;;;;;;7.35;3.05;;;22.70;54.70;;;;;;5240586;28;20054;-49
2021/06/15 04:33:09;;;;;;;4.40;2.80;;;22.70;54.80;;;;;;5244010;28;20527;-52
2021/06/15 04:35:54;;;;;;;4.50;3.00;;;22.70;54.80;;;;;;5244704;28;20056;-53
2021/06/15 04:38:43;;;;;;;5.68;3.00;;;22.70;54.80;;;;;;5207580;28;20822;-55
2021/06/15 04:41:20;;;;;;;5.43;2.80;;;22.70;54.90;;;;;;5243064;28;20067;-55
2021/06/15 04:43:57;;;;;;;8.27;2.75;;;22.70;54.90;;;;;;5242255;28;20048;-52
2021/06/15 04:46:54;;;;;;;3.90;2.80;;;22.70;54.90;;;;;;5242721;28;20048;-52
2021/06/15 04:49:44;;;;;;;6.15;2.97;;;22.70;54.90;;;;;;5241451;28;20048;-58
2021/06/15 04:52:20;;;;;;;6.93;3.20;;;22.70;55.00;;;;;;5241042;28;20503;-54
2021/06/15 04:54:55;;;;;;;6.32;3.20;;;22.70;55.10;;;;;;5242389;28;20056;-52
2021/06/15 04:57:31;;;;;;;7.75;3.70;;;22.70;55.10;;;;;;5236832;28;20052;-49
2021/06/15 05:00:05;;;;;;;14.77;3.53;;;22.60;53.60;;;;;;5240057;28;20511;-53
2021/06/15 05:02:39;;;;;;;15.20;3.50;;;22.50;54.30;;;;;;5238458;28;20125;-59
2021/06/15 05:05:13;;;;;;;9.05;3.75;;;22.40;55.30;;;;;;5240126;28;20071;-49
2021/06/15 05:07:53;;;;;;;16.73;4.10;;;22.40;55.70;;;;;;5239959;28;20056;-51
2021/06/15 05:10:28;;;;;;;17.23;3.65;;;22.40;55.70;;;;;;5218541;28;20045;-57
2021/06/15 05:13:03;;;;;;;19.80;3.70;;;22.50;55.50;;;;;;5240006;28;20052;-59
2021/06/15 05:15:43;;;;;;;10.52;3.60;;;22.50;55.60;;;;;;5239238;28;20536;-51
2021/06/15 05:18:16;;;;;;;6.88;3.17;;;22.50;55.80;;;;;;5240183;28;20056;-49
2021/06/15 05:20:49;;;;;;;7.53;3.15;;;22.50;55.90;;;;;;5237797;28;20501;-54
2021/06/15 05:23:33;;;;;;;7.97;3.70;;;22.60;55.90;;;;;;5228103;28;20500;-55
2021/06/15 05:26:05;;;;;;;16.48;3.33;;;22.60;55.90;;;;;;5238175;28;20064;-54
2021/06/15 05:28:38;;;;;;;10.27;3.45;;;22.60;56.00;;;;;;5239118;28;20063;-56
2021/06/15 05:31:11;;;;;;;7.78;3.22;;;22.70;56.10;;;;;;5239806;28;20056;-55
2021/06/15 05:33:43;;;;;;;12.85;3.65;;;22.70;56.00;;;;;;5242618;28;21052;-53
2021/06/15 05:36:16;;;;;;;6.17;3.67;;;22.70;56.00;;;;;;5243534;28;20048;-56
2021/06/15 05:38:49;;;;;;;12.93;3.20;;;22.80;56.00;;;;;;5247177;28;20310;-55
2021/06/15 05:41:21;;;;;;;15.07;4.05;;;22.80;56.00;;;;;;5241478;28;20048;-55
2021/06/15 05:43:54;;;;;;;9.07;3.13;;;22.80;56.00;;;;;;5247345;28;20072;-52
2021/06/15 05:46:26;;;;;;;8.73;3.17;;;22.80;56.00;;;;;;5243003;28;20048;-57
2021/06/15 05:48:59;;;;;;;7.00;3.17;;;22.80;55.90;;;;;;5246422;28;20059;-54
2021/06/15 05:51:32;;;;;;;10.55;3.08;;;22.80;55.90;;;;;;5244655;28;20412;-57
2021/06/15 05:54:06;;;;;;;15.13;3.50;;;22.90;56.00;;;;;;5247229;28;20056;-53
2021/06/15 05:56:38;;;;;;;12.85;3.25;;;22.90;55.90;;;;;;5247607;28;20048;-57
2021/06/15 05:59:11;;;;;;;8.80;3.27;;;22.90;55.90;;;;;;5243204;28;20044;-51
2021/06/15 06:01:43;;;;;;;15.82;4.05;;;22.90;55.80;;;;;;5242327;28;20622;-53
2021/06/15 06:04:20;;;;;;;10.55;2.70;;;22.90;55.80;;;;;;5253630;28;20047;-56
2021/06/15 06:09:45;;;;;;;9.88;3.30;;;22.90;55.80;;;;;;5247449;28;20052;-56
2021/06/15 06:12:17;;;;;;;8.07;3.10;;;23.00;55.90;;;;;;5250193;28;20044;-52
2021/06/15 06:14:51;;;;;;;8.23;3.40;;;23.00;55.80;;;;;;5247012;28;20067;-56
2021/06/15 06:17:24;;;;;;;9.35;3.50;;;23.00;55.90;;;;;;5243000;28;20055;-49
2021/06/15 06:20:13;;;;;;;4.40;3.10;;;23.00;55.90;;;;;;5245236;28;20043;-54
2021/06/15 06:22:45;;;;;;;8.68;2.88;;;23.00;55.90;;;;;;5237084;28;20047;-54
2021/06/15 06:25:18;;;;;;;13.75;2.97;;;23.00;56.00;;;;;;5239021;28;20049;-53
2021/06/15 06:27:50;;;;;;;5.78;2.95;;;23.00;55.90;;;;;;5246714;28;20413;-49
2021/06/15 06:30:23;;;;;;;6.57;3.22;;;23.00;55.90;;;;;;5225050;28;20045;-55
2021/06/15 06:32:56;;;;;;;5.65;2.95;;;23.00;55.80;;;;;;5241014;28;20059;-57
2021/06/15 06:35:29;;;;;;;8.52;3.40;;;23.00;55.80;;;;;;5246809;28;20059;-53
2021/06/15 06:38:03;;;;;;;4.33;2.87;;;23.10;55.90;;;;;;5247306;28;20530;-53
2021/06/15 06:40:36;;;;;;;6.78;3.20;;;23.10;55.90;;;;;;5248846;28;20036;-53
2021/06/15 06:43:10;;;;;;;7.03;3.20;;;23.10;55.90;;;;;;5237569;28;20056;-52
2021/06/15 06:45:42;;;;;;;8.85;3.33;;;23.10;55.90;;;;;;5251425;28;20505;-58
2021/06/15 06:48:16;;;;;;;8.30;2.88;;;23.10;56.00;;;;;;5240384;28;20998;-58
2021/06/15 06:50:48;;;;;;;6.65;2.97;;;23.10;55.90;;;;;;5235842;28;20055;-54
2021/06/15 06:53:21;;;;;;;5.72;3.40;;;23.10;55.90;;;;;;5245443;28;20048;-55
2021/06/15 06:55:54;;;;;;;6.35;3.55;;;23.10;55.90;;;;;;5243077;28;20421;-51
2021/06/15 06:58:26;;;;;;;8.80;3.33;;;23.10;55.90;;;;;;5225323;28;20213;-58
2021/06/15 07:00:59;;;;;;;6.07;3.05;;;23.10;55.90;;;;;;5239610;28;20059;-57
2021/06/15 07:03:32;;;;;;;5.38;2.95;;;23.20;56.00;;;;;;5229387;28;20057;-56
2021/06/15 07:06:05;;;;;;;3.45;2.70;;;23.10;56.00;;;;;;5227360;28;20053;-57
2021/06/15 07:08:37;;;;;;;3.80;2.70;;;23.10;55.90;;;;;;5253419;28;20040;-55
2021/06/15 07:11:10;;;;;;;6.37;3.10;;;23.20;55.90;;;;;;5249067;28;20063;-58
2021/06/15 07:13:43;;;;;;;6.22;3.30;;;23.20;56.00;;;;;;5251179;28;20052;-57
2021/06/15 07:16:15;;;;;;;5.68;3.00;;;23.10;55.90;;;;;;5255332;28;20052;-55
2021/06/15 07:18:48;;;;;;;10.27;3.37;;;23.20;56.00;;;;;;5249041;28;20052;-55
2021/06/15 07:21:21;;;;;;;5.35;3.00;;;23.20;56.00;;;;;;5253223;28;20471;-57
2021/06/15 07:23:54;;;;;;;5.00;3.05;;;23.20;56.00;;;;;;5233476;28;20059;-55
2021/06/15 07:26:26;;;;;;;4.20;2.95;;;23.20;55.90;;;;;;5253315;28;20052;-56
2021/06/15 07:28:59;;;;;;;4.68;3.30;;;23.20;55.90;;;;;;5244558;28;20488;-51
2021/06/15 07:31:32;;;;;;;6.43;3.15;;;23.20;55.90;;;;;;5247957;28;20048;-54
2021/06/15 07:34:05;;;;;;;6.18;2.95;;;23.20;56.00;;;;;;5248934;28;20056;-54
2021/06/15 07:36:38;;;;;;;4.07;2.88;;;23.20;55.90;;;;;;5252138;28;20044;-57
2021/06/15 07:39:10;;;;;;;4.03;3.03;;;23.20;56.00;;;;;;5248493;28;20060;-53
2021/06/15 07:41:43;;;;;;;4.35;2.90;;;23.20;56.00;;;;;;5249907;28;20059;-54
2021/06/15 07:44:16;;;;;;;3.00;2.53;;;23.20;55.90;;;;;;5252254;28;20078;-52
2021/06/15 07:46:48;;;;;;;5.83;2.80;;;23.20;56.00;;;;;;5249411;28;20560;-51
2021/06/15 07:49:22;;;;;;;6.10;3.30;;;23.30;56.00;;;;;;5230855;28;20306;-57
2021/06/15 07:51:55;;;;;;;5.35;2.90;;;23.30;56.00;;;;;;5246943;28;20063;-51
2021/06/15 07:54:41;;;;;;;2.97;2.60;;;23.30;56.00;;;;;;5249182;28;20040;-52
2021/06/15 07:57:14;;;;;;;3.80;2.92;;;23.30;55.90;;;;;;5249857;28;20048;-51
2021/06/15 07:59:46;;;;;;;12.80;2.85;;;23.30;56.00;;;;;;5247249;28;20428;-55
2021/06/15 08:02:19;;;;;;;5.93;3.07;;;23.30;55.90;;;;;;5250346;28;20063;-54
2021/06/15 08:04:52;;;;;;;6.70;2.40;;;23.30;55.90;;;;;;5247252;28;20448;-51
2021/06/15 08:07:24;;;;;;;4.50;2.80;;;23.30;55.90;;;;;;5243957;28;20060;-55
2021/06/15 08:09:57;;;;;;;7.90;2.90;;;23.30;55.90;;;;;;5245119;28;20720;-51
2021/06/15 08:12:29;;;;;;;3.58;2.30;;;23.30;55.90;;;;;;5249446;28;20068;-56
2021/06/15 08:15:04;;;;;;;4.25;3.38;;;23.30;55.90;;;;;;5250337;28;20052;-59
2021/06/15 08:17:37;;;;;;;5.90;2.55;;;23.30;55.90;;;;;;5245456;28;20527;-56
2021/06/15 08:20:11;;;;;;;6.07;2.50;;;23.30;55.90;;;;;;5253042;28;20060;-54
2021/06/15 08:22:43;;;;;;;5.82;2.92;;;23.30;55.90;;;;;;5249321;28;20450;-53
2021/06/15 08:25:16;;;;;;;4.07;2.47;;;23.30;55.90;;;;;;5249335;28;20059;-55
2021/06/15 08:27:49;;;;;;;4.25;2.80;;;23.30;55.90;;;;;;5251862;28;20044;-53
2021/06/15 08:30:22;;;;;;;3.20;2.28;;;23.40;56.00;;;;;;5250480;28;20044;-56
2021/06/15 08:32:55;;;;;;;4.18;2.53;;;23.30;55.90;;;;;;5249540;28;20051;-54
2021/06/15 08:35:27;;;;;;;8.37;2.40;;;23.30;55.90;;;;;;5251343;28;20547;-56
2021/06/15 08:38:00;;;;;;;3.00;2.70;;;23.30;55.90;;;;;;5250154;28;20048;-51
2021/06/15 08:40:34;;;;;;;4.93;2.90;;;23.40;56.00;;;;;;5229170;28;20044;-54
2021/06/15 08:43:06;;;;;;;5.85;2.55;;;23.40;56.00;;;;;;5245409;28;20049;-55
2021/06/15 08:45:41;;;;;;;2.92;2.47;;;23.40;56.00;;;;;;5229927;28;20040;-56
2021/06/15 08:48:14;;;;;;;4.10;2.35;;;23.40;56.00;;;;;;5245816;28;20051;-57
2021/06/15 08:50:47;;;;;;;3.40;2.40;;;23.40;56.00;;;;;;5243700;28;20068;-56
2021/06/15 08:53:19;;;;;;;3.58;2.58;;;23.40;56.00;;;;;;5245861;28;20412;-57
2021/06/15 08:55:59;;;;;;;3.92;2.33;;;23.40;56.00;;;;;;5245921;28;20053;-56
2021/06/15 08:58:45;;;;;;;4.35;2.70;;;23.40;56.00;;;;;;5243000;28;20036;-57
2021/06/15 09:01:18;;;;;;;3.17;2.65;;;23.40;56.00;;;;;;5248076;28;20432;-54
2021/06/15 09:03:52;;;;;;;3.60;2.08;;;23.40;56.00;;;;;;5236432;28;20056;-56
2021/06/15 09:06:25;;;;;;;4.75;2.72;;;23.40;56.00;;;;;;5241742;28;20055;-56
2021/06/15 09:08:59;;;;;;;3.53;2.58;;;23.40;56.00;;;;;;5240283;28;20657;-53
2021/06/15 09:11:51;;;;;;;2.95;2.33;;;23.40;56.00;;;;;;5240246;28;20050;-56
2021/06/15 09:14:43;;;;;;;4.15;2.55;;;23.40;55.90;;;;;;5244473;28;20523;-53
2021/06/15 09:17:25;;;;;;;4.82;2.67;;;23.40;55.90;;;;;;5241911;28;20044;-49
2021/06/15 09:20:16;;;;;;;2.70;2.10;;;23.40;55.80;;;;;;5246468;28;20052;-51
2021/06/15 09:23:15;;;;;;;4.38;2.40;;;23.40;55.80;;;;;;5250692;28;20480;-55
2021/06/15 09:25:48;;;;;;;2.83;2.40;;;23.50;55.70;;;;;;5251943;28;20424;-55
2021/06/15 09:28:22;;;;;;;4.00;2.65;;;23.40;55.70;;;;;;5248695;28;20404;-59
2021/06/15 09:31:03;;;;;;;4.40;2.40;;;23.50;55.80;;;;;;5253076;28;20063;-53
2021/06/15 09:33:38;;;;;;;5.53;2.80;;;23.50;55.70;;;;;;5252458;28;20071;-54
2021/06/15 09:36:14;;;;;;;4.95;2.78;;;23.50;55.60;;;;;;5252852;28;20048;-54
2021/06/15 09:38:56;;;;;;;3.85;2.50;;;23.50;55.60;;;;;;5244992;28;20063;-55
2021/06/15 09:41:45;;;;;;;3.60;2.53;;;23.50;56.10;;;;;;5247092;28;20055;-56
2021/06/15 09:44:20;;;;;;;2.83;2.50;;;23.50;55.40;;;;;;5246584;28;20048;-57
2021/06/15 09:46:59;;;;;;;4.57;2.72;;;23.50;55.40;;;;;;5243462;28;20900;-52
2021/06/15 09:49:39;;;;;;;4.53;2.70;;;23.50;55.30;;;;;;5248375;28;20052;-57
2021/06/15 09:52:27;;;;;;;5.10;2.30;;;23.50;55.40;;;;;;5242337;28;20060;-55
2021/06/15 09:55:06;;;;;;;3.83;2.30;;;23.50;55.30;;;;;;5246837;28;20040;-58
2021/06/15 09:57:45;;;;;;;3.90;2.38;;;23.50;55.30;;;;;;5245257;28;20041;-60
2021/06/15 10:00:22;;;;;;;5.03;2.72;;;23.50;55.30;;;;;;5244350;28;20048;-57
2021/06/15 10:03:00;;;;;;;2.60;2.40;;;23.60;55.30;;;;;;5244216;28;20060;-53
2021/06/15 10:05:37;;;;;;;3.72;2.65;;;23.50;55.20;;;;;;5249955;28;20420;-56
2021/06/15 10:08:11;;;;;;;5.05;2.80;;;23.60;55.20;;;;;;5250628;28;20060;-50
2021/06/15 10:10:48;;;;;;;4.28;3.22;;;23.60;55.20;;;;;;5246026;28;20048;-58
2021/06/15 10:13:21;;;;;;;3.90;2.43;;;23.60;55.10;;;;;;5250246;28;20045;-55
2021/06/15 10:15:54;;;;;;;3.65;2.53;;;23.60;55.20;;;;;;5246628;28;20412;-54
2021/06/15 10:18:27;;;;;;;6.93;2.80;;;23.60;55.20;;;;;;5243785;28;20040;-58
2021/06/15 10:21:01;;;;;;;3.58;3.00;;;23.60;55.20;;;;;;5254873;28;20053;-53
2021/06/15 10:23:34;;;;;;;5.53;2.83;;;23.60;55.20;;;;;;5252408;28;20130;-55
2021/06/15 10:26:07;;;;;;;6.13;2.88;;;23.60;54.90;;;;;;5242645;28;20067;-50
2021/06/15 10:28:39;;;;;;;4.93;2.70;;;23.60;54.70;;;;;;5247354;28;20055;-53
2021/06/15 10:31:12;;;;;;;4.60;2.70;;;23.60;54.60;;;;;;5243805;28;20051;-56
2021/06/15 10:33:48;;;;;;;3.77;2.90;;;23.60;54.60;;;;;;5242062;28;20063;-55
2021/06/15 10:36:44;;;;;;;3.92;3.00;;;23.60;54.60;;;;;;5246850;28;20058;-58
2021/06/15 10:39:36;;;;;;;5.65;3.15;;;23.60;54.50;;;;;;5246937;28;20059;-53
2021/06/15 10:42:11;;;;;;;4.15;2.95;;;23.60;54.60;;;;;;5243606;28;20420;-53
2021/06/15 10:44:44;;;;;;;5.15;3.28;;;23.60;54.60;;;;;;5246118;28;20052;-53
2021/06/15 10:47:17;;;;;;;4.82;2.85;;;23.60;54.60;;;;;;5249295;28;20105;-55
2021/06/15 10:50:00;;;;;;;6.57;2.60;;;23.70;54.70;;;;;;5228974;28;20048;-57
2021/06/15 10:53:02;;;;;;;4.00;3.00;;;23.70;54.70;;;;;;5244733;28;20040;-58
2021/06/15 10:55:52;;;;;;;4.18;3.25;;;23.70;54.70;;;;;;5243306;28;25037;-51
2021/06/15 10:58:38;;;;;;;5.55;3.30;;;23.70;54.60;;;;;;5227491;28;20045;-57
2021/06/15 11:01:25;;;;;;;5.50;3.13;;;23.70;54.60;;;;;;5243759;28;20052;-56
2021/06/15 11:04:05;;;;;;;4.72;3.22;;;23.70;54.50;;;;;;5243275;28;20051;-56
2021/06/15 11:06:48;;;;;;;6.75;3.25;;;23.70;54.40;;;;;;5250225;28;20048;-55
2021/06/15 11:09:26;;;;;;;11.68;3.60;;;23.70;54.40;;;;;;5240949;28;20044;-55
2021/06/15 11:11:58;;;;;;;8.23;3.60;;;23.70;54.30;;;;;;5243896;28;24711;-52
2021/06/15 11:14:31;;;;;;;5.65;3.30;;;23.70;54.30;;;;;;5244208;28;20071;-53
2021/06/15 11:17:07;;;;;;;6.90;3.53;;;23.70;54.30;;;;;;5243609;28;20052;-53
2021/06/15 11:19:40;;;;;;;9.32;3.53;;;23.70;54.20;;;;;;5245168;28;20057;-55
2021/06/15 11:22:20;;;;;;;5.00;3.30;;;23.70;54.10;;;;;;5227874;28;20218;-57
2021/06/15 11:24:56;;;;;;;5.32;3.13;;;23.70;54.00;;;;;;5233560;28;20056;-52
2021/06/15 11:27:28;;;;;;;7.13;3.33;;;23.80;54.30;;;;;;5232921;28;20052;-55
2021/06/15 11:30:13;;;;;;;6.65;3.03;;;23.70;54.30;;;;;;5236349;28;20051;-54
2021/06/15 11:32:59;;;;;;;3.58;2.95;;;23.80;54.50;;;;;;5239542;28;20488;-55
2021/06/15 11:35:40;;;;;;;5.50;3.30;;;23.80;54.60;;;;;;5234000;28;20500;-58
2021/06/15 11:38:16;;;;;;;5.28;3.17;;;23.80;54.70;;;;;;5233685;28;20052;-59
2021/06/15 11:40:49;;;;;;;5.88;3.38;;;23.80;54.80;;;;;;5240774;28;20060;-53
2021/06/15 11:43:22;;;;;;;10.00;3.13;;;23.80;54.90;;;;;;5241066;28;20058;-55
2021/06/15 11:45:57;;;;;;;5.18;2.97;;;23.80;54.90;;;;;;5246247;28;20064;-52
2021/06/15 11:48:35;;;;;;;4.65;2.85;;;23.80;55.00;;;;;;5244076;28;20052;-58
2021/06/15 11:51:09;;;;;;;4.78;3.10;;;23.80;55.00;;;;;;5241163;28;20063;-54
2021/06/15 11:53:42;;;;;;;8.48;2.92;;;23.90;55.10;;;;;;5243012;28;20056;-53
2021/06/15 11:56:15;;;;;;;12.23;3.83;;;23.90;55.00;;;;;;5235586;28;20045;-55
2021/06/15 11:58:54;;;;;;;5.93;3.65;;;23.90;55.00;;;;;;5247985;28;20056;-56
2021/06/15 12:01:35;;;;;;;5.32;3.13;;;23.90;55.10;;;;;;5234992;28;20052;-56
2021/06/15 12:04:09;;;;;;;4.22;2.70;;;24.00;55.20;;;;;;5244538;28;20047;-54
2021/06/15 12:06:41;;;;;;;8.10;3.22;;;24.00;55.20;;;;;;5242379;28;20512;-54
2021/06/15 12:09:14;;;;;;;7.80;3.03;;;24.10;55.30;;;;;;5244587;28;20606;-55
2021/06/15 12:11:48;;;;;;;8.33;3.37;;;24.00;55.40;;;;;;5248553;28;20504;-55
2021/06/15 12:14:20;;;;;;;8.30;3.35;;;24.10;55.30;;;;;;5250298;28;20056;-57
2021/06/15 12:16:53;;;;;;;7.00;2.90;;;24.20;55.40;;;;;;5232389;28;20057;-56
2021/06/15 12:19:36;;;;;;;11.07;2.70;;;24.10;55.40;;;;;;5249025;28;20302;-52
2021/06/15 12:22:15;;;;;;;5.82;3.10;;;24.20;55.50;;;;;;5241886;28;20067;-52
2021/06/15 12:24:48;;;;;;;7.00;3.22;;;24.20;55.60;;;;;;5251304;28;20063;-58
2021/06/15 12:27:21;;;;;;;3.75;2.50;;;24.20;55.60;;;;;;5241038;28;20040;-56
2021/06/15 12:30:06;;;;;;;4.90;2.80;;;24.20;55.60;;;;;;5246981;28;20052;-58
2021/06/15 12:32:48;;;;;;;8.55;2.85;;;24.20;55.70;;;;;;5230327;28;20047;-52
2021/06/15 12:35:21;;;;;;;10.40;3.47;;;24.30;55.70;;;;;;5247991;28;20645;-54
2021/06/15 12:37:53;;;;;;;5.70;2.85;;;24.30;55.70;;;;;;5246822;28;20044;-59
2021/06/15 12:40:26;;;;;;;4.20;2.95;;;24.30;55.70;;;;;;5245026;28;20056;-54
2021/06/15 12:42:58;;;;;;;6.30;2.95;;;24.30;55.70;;;;;;5250483;28;20056;-59
2021/06/15 12:45:37;;;;;;;7.65;2.83;;;24.30;55.80;;;;;;5236216;28;20063;-55
2021/06/15 12:48:23;;;;;;;8.63;3.15;;;24.30;55.90;;;;;;5239337;28;20059;-53
2021/06/15 12:51:10;;;;;;;6.20;2.95;;;24.30;56.00;;;;;;5233296;28;20051;-56
2021/06/15 12:53:43;;;;;;;4.80;2.65;;;24.30;55.90;;;;;;5242393;28;20463;-55
2021/06/15 12:56:27;;;;;;;6.07;2.53;;;24.30;55.90;;;;;;5242398;28;20496;-54
2021/06/15 12:59:12;;;;;;;;;;;24.30;55.70;;;;;;5240317;28;20296;-56
2021/06/15 13:01:44;;;;;;;;;;;24.20;55.60;;;;;;5248123;28;19936;-53
2021/06/15 13:04:32;;;;;;;5.90;2.85;;;24.20;55.50;;;;;;5241201;28;19924;-54
2021/06/15 13:07:21;;;;;;;8.68;2.55;;;24.20;55.40;;;;;;5238817;28;20048;-54
2021/06/15 13:09:55;;;;;;;6.22;2.70;;;24.20;55.40;;;;;;5237740;28;20575;-58
2021/06/15 13:12:29;;;;;;;8.77;2.80;;;24.20;55.20;;;;;;5218796;28;20372;-56
2021/06/15 13:15:06;;;;;;;8.15;2.95;;;24.30;55.20;;;;;;5249841;28;20413;-52
2021/06/15 13:17:40;;;;;;;6.20;2.88;;;24.20;55.70;;;;;;5226445;28;20737;-51
2021/06/15 13:20:24;;;;;;;10.35;3.05;;;24.30;55.10;;;;;;5242984;28;20067;-53
2021/06/15 13:23:00;;;;;;;6.82;2.92;;;24.30;55.00;;;;;;5246029;28;20150;-51
2021/06/15 13:25:33;;;;;;;6.67;2.80;;;24.40;55.10;;;;;;5254393;28;20162;-48
2021/06/15 13:28:11;;;;;;;10.93;3.08;;;24.40;55.10;;;;;;5243601;28;20317;-52
2021/06/15 13:30:43;;;;;;;5.65;2.55;;;24.40;55.20;;;;;;5242898;28;20071;-51
2021/06/15 13:33:23;;;;;;;6.88;2.85;;;24.40;55.10;;;;;;5254969;28;20047;-48
2021/06/15 13:35:57;;;;;;;5.07;2.40;;;24.30;55.10;;;;;;5252266;28;20052;-51
2021/06/15 13:38:31;;;;;;;3.58;2.50;;;24.30;55.10;;;;;;5245019;28;20048;-49
2021/06/15 13:41:05;;;;;;;12.13;3.30;;;24.30;55.00;;;;;;5248899;28;20052;-48